< < Back
Terminal Aerodrome Forecast


Current Version              Previous Versions:   1  2  3  4  5  6  7  8  9  

Terminal Aerodrome Forecast

311
FTUS44 KBMX 052056 AAA
TAFMGM
TAF AMD
KMGM 052056Z 0521/0618 25009KT P6SM BKN040
      TEMPO 0522/0601 2SM TSRA BR BKN020CB OVC040
     FM060100 00000KT P6SM BKN080
     FM061400 25005KT P6SM SCT030=

Latest METAR

300
SAUS80 KWBC 052000 RRA
MTRMGM
METAR KMGM 051953Z 22007KT 10SM VCTS BKN026 28/22 A3012 RMK AO2 SLP196
T02780217


USA.gov is the U.S. government's official web portal to all federal, state and local government web resources and services.